Wetterdaten: Woche 03.01.11 - 09.01.11 (KW1)
Datum Zeit Temperatur Luftfeuchte Luftdruck Niederschlag Windrichtung Sonnenschein Solar Wind
03.01.2011 00:00 -9,0 C 93 % 1024,1 hPa 0,0 l/m N 0,00 h 0 W/m 0,1 km/h (0 Bft)
03.01.2011 01:00 -9,3 C 93 % 1024,1 hPa 0,0 l/m N 0,00 h 0 W/m 0,0 km/h (0 Bft)
03.01.2011 02:00 -9,8 C 93 % 1024,4 hPa 0,0 l/m N 0,00 h 0 W/m 0,0 km/h (0 Bft)
03.01.2011 03:00 -9,4 C 94 % 1024,3 hPa 0,0 l/m N 0,00 h 0 W/m 1,5 km/h (1 Bft)
03.01.2011 04:00 -8,9 C 94 % 1024,4 hPa 0,0 l/m N 0,00 h 0 W/m 0,4 km/h (0 Bft)
03.01.2011 05:00 -8,9 C 94 % 1024,7 hPa 0,0 l/m N 0,00 h 0 W/m 0,4 km/h (0 Bft)
03.01.2011 06:00 -8,8 C 94 % 1024,9 hPa 0,0 l/m N 0,00 h 0 W/m 0,4 km/h (0 Bft)
03.01.2011 07:00 -9,3 C 93 % 1025,0 hPa 0,0 l/m N 0,00 h 0 W/m 0,4 km/h (0 Bft)
03.01.2011 08:00 -10,2 C 92 % 1025,3 hPa 0,0 l/m N 0,00 h 12 W/m 0,0 km/h (0 Bft)
03.01.2011 09:00 -10,2 C 93 % 1025,5 hPa 0,0 l/m N 0,00 h 35 W/m 0,0 km/h (0 Bft)
03.01.2011 10:00 -8,1 C 95 % 1025,6 hPa 0,0 l/m N 0,00 h 52 W/m 0,7 km/h (0 Bft)
03.01.2011 11:00 -5,0 C 92 % 1025,4 hPa 0,0 l/m N-NO 0,25 h 116 W/m 2,1 km/h (1 Bft)
03.01.2011 12:00 -3,7 C 89 % 1025,1 hPa 0,0 l/m N-NO 0,92 h 257 W/m 2,7 km/h (1 Bft)
03.01.2011 13:00 -2,4 C 86 % 1024,6 hPa 0,0 l/m N-NO 1,00 h 316 W/m 2,8 km/h (1 Bft)
03.01.2011 14:00 -1,7 C 83 % 1024,3 hPa 0,0 l/m N-NO 1,00 h 215 W/m 2,5 km/h (1 Bft)
03.01.2011 15:00 -2,2 C 86 % 1024,3 hPa 0,0 l/m N-NO 0,00 h 55 W/m 5,5 km/h (1 Bft)
03.01.2011 16:00 -2,9 C 87 % 1024,2 hPa 0,0 l/m N-NO 0,00 h 12 W/m 1,9 km/h (1 Bft)
03.01.2011 17:00 -4,7 C 87 % 1024,3 hPa 0,0 l/m N 0,00 h 0 W/m 0,8 km/h (0 Bft)
03.01.2011 18:00 -6,3 C 89 % 1024,2 hPa 0,0 l/m N 0,00 h 0 W/m 0,0 km/h (0 Bft)
03.01.2011 19:00 -7,4 C 90 % 1024,0 hPa 0,0 l/m N 0,00 h 0 W/m 0,0 km/h (0 Bft)
03.01.2011 20:00 -8,1 C 90 % 1023,7 hPa 0,0 l/m N 0,00 h 0 W/m 0,0 km/h (0 Bft)
03.01.2011 21:00 -8,9 C 90 % 1023,6 hPa 0,0 l/m N 0,00 h 0 W/m 0,1 km/h (0 Bft)
03.01.2011 22:00 -9,3 C 92 % 1023,5 hPa 0,0 l/m N 0,00 h 0 W/m 0,8 km/h (0 Bft)
03.01.2011 23:00 -8,3 C 95 % 1023,3 hPa 0,0 l/m N 0,00 h 0 W/m 0,3 km/h (0 Bft)
04.01.2011 00:00 -7,6 C 95 % 1023,0 hPa 0,0 l/m N-NO 0,00 h 0 W/m 2,0 km/h (1 Bft)
04.01.2011 01:00 -8,2 C 94 % 1022,7 hPa 0,0 l/m N 0,00 h 0 W/m 1,7 km/h (1 Bft)
04.01.2011 02:00 -8,0 C 94 % 1022,7 hPa 0,0 l/m N-NO 0,00 h 0 W/m 2,3 km/h (1 Bft)
04.01.2011 03:00 -7,7 C 95 % 1022,6 hPa 0,0 l/m N 0,00 h 0 W/m 1,6 km/h (1 Bft)
04.01.2011 04:00 -7,3 C 95 % 1022,1 hPa 0,0 l/m N 0,00 h 0 W/m 0,0 km/h (0 Bft)
04.01.2011 05:00 -7,1 C 95 % 1021,9 hPa 0,0 l/m N 0,00 h 0 W/m 0,0 km/h (0 Bft)
04.01.2011 06:00 -6,9 C 95 % 1021,6 hPa 0,0 l/m N 0,00 h 0 W/m 1,5 km/h (1 Bft)
04.01.2011 07:00 -6,8 C 95 % 1021,2 hPa 0,0 l/m N 0,00 h 0 W/m 2,1 km/h (1 Bft)
04.01.2011 08:00 -6,7 C 94 % 1021,2 hPa 0,0 l/m N-NO 0,00 h 6 W/m 2,0 km/h (1 Bft)
04.01.2011 09:00 -6,7 C 93 % 1021,0 hPa 0,0 l/m N 0,00 h 12 W/m 2,8 km/h (1 Bft)
04.01.2011 10:00 -6,5 C 93 % 1021,0 hPa 0,0 l/m N-NO 0,00 h 65 W/m 1,3 km/h (1 Bft)
04.01.2011 11:00 -6,3 C 92 % 1020,8 hPa 0,0 l/m NW 0,00 h 115 W/m 4,4 km/h (1 Bft)
04.01.2011 12:00 -6,3 C 91 % 1020,1 hPa 0,0 l/m N 0,00 h 122 W/m 5,5 km/h (1 Bft)
04.01.2011 13:00 -6,3 C 91 % 1019,5 hPa 0,0 l/m N 0,00 h 121 W/m 4,7 km/h (1 Bft)
04.01.2011 14:00 -6,1 C 91 % 1019,2 hPa 0,0 l/m N 0,00 h 96 W/m 3,6 km/h (1 Bft)
04.01.2011 15:00 -6,1 C 91 % 1018,9 hPa 0,0 l/m O 0,00 h 47 W/m 2,9 km/h (1 Bft)
04.01.2011 16:00 -5,9 C 91 % 1018,9 hPa 0,0 l/m N 0,08 h 15 W/m 2,3 km/h (1 Bft)
04.01.2011 17:00 -6,1 C 92 % 1018,6 hPa 0,0 l/m N 0,00 h 0 W/m 2,3 km/h (1 Bft)
04.01.2011 18:00 -6,2 C 93 % 1018,5 hPa 0,0 l/m O 0,00 h 0 W/m 1,6 km/h (1 Bft)
04.01.2011 19:00 -6,2 C 93 % 1018,6 hPa 0,0 l/m N 0,00 h 0 W/m 1,7 km/h (1 Bft)
04.01.2011 20:00 -6,3 C 93 % 1018,6 hPa 0,0 l/m O 0,00 h 0 W/m 0,9 km/h (0 Bft)
04.01.2011 21:00 -6,3 C 94 % 1018,4 hPa 0,0 l/m N 0,00 h 0 W/m 0,5 km/h (0 Bft)
04.01.2011 22:00 -6,3 C 94 % 1018,3 hPa 0,0 l/m N 0,00 h 0 W/m 0,8 km/h (0 Bft)
04.01.2011 23:00 -6,2 C 94 % 1018,0 hPa 0,0 l/m N 0,00 h 0 W/m 0,4 km/h (0 Bft)
05.01.2011 00:00 -6,1 C 94 % 1017,7 hPa 0,0 l/m N 0,00 h 0 W/m 1,1 km/h (0 Bft)
05.01.2011 01:00 -6,3 C 94 % 1017,4 hPa 0,0 l/m N 0,00 h 0 W/m 0,0 km/h (0 Bft)
05.01.2011 02:00 -6,7 C 94 % 1017,3 hPa 0,0 l/m N 0,00 h 0 W/m 0,0 km/h (0 Bft)
05.01.2011 03:00 -6,7 C 94 % 1017,2 hPa 0,0 l/m N 0,00 h 0 W/m 0,0 km/h (0 Bft)
05.01.2011 04:00 -6,5 C 95 % 1017,0 hPa 0,0 l/m N 0,00 h 0 W/m 0,0 km/h (0 Bft)
05.01.2011 05:00 -6,2 C 95 % 1016,7 hPa 0,0 l/m N 0,00 h 0 W/m 1,2 km/h (1 Bft)
05.01.2011 06:00 -6,1 C 94 % 1016,8 hPa 0,0 l/m N 0,00 h 0 W/m 0,7 km/h (0 Bft)
05.01.2011 07:00 -6,2 C 94 % 1017,2 hPa 0,0 l/m N 0,00 h 0 W/m 2,4 km/h (1 Bft)
05.01.2011 08:00 -6,0 C 95 % 1017,1 hPa 0,0 l/m N 0,00 h 15 W/m 1,6 km/h (1 Bft)
05.01.2011 09:00 -5,4 C 95 % 1017,1 hPa 0,0 l/m O 0,00 h 56 W/m 2,0 km/h (1 Bft)
05.01.2011 10:00 -4,1 C 90 % 1016,7 hPa 0,0 l/m S-SO 0,08 h 125 W/m 5,9 km/h (2 Bft)
05.01.2011 11:00 -3,1 C 88 % 1016,2 hPa 0,0 l/m S 0,25 h 142 W/m 2,0 km/h (1 Bft)
05.01.2011 12:00 -1,6 C 81 % 1015,3 hPa 0,0 l/m S 1,00 h 259 W/m 4,0 km/h (1 Bft)
05.01.2011 13:00 -0,5 C 72 % 1014,6 hPa 0,0 l/m S 1,00 h 313 W/m 3,6 km/h (1 Bft)
05.01.2011 14:00 -0,3 C 70 % 1014,3 hPa 0,0 l/m S 1,00 h 211 W/m 3,7 km/h (1 Bft)
05.01.2011 15:00 -1,2 C 78 % 1014,1 hPa 0,0 l/m N 0,00 h 46 W/m 1,5 km/h (1 Bft)
05.01.2011 16:00 -2,4 C 86 % 1013,9 hPa 0,0 l/m N 0,00 h 10 W/m 0,0 km/h (0 Bft)
05.01.2011 17:00 -3,6 C 86 % 1013,5 hPa 0,0 l/m N 0,00 h 0 W/m 0,0 km/h (0 Bft)
05.01.2011 18:00 -5,0 C 88 % 1013,4 hPa 0,0 l/m N 0,00 h 0 W/m 0,0 km/h (0 Bft)
05.01.2011 19:00 -5,8 C 90 % 1013,3 hPa 0,0 l/m N 0,00 h 0 W/m 0,0 km/h (0 Bft)
05.01.2011 20:00 -5,7 C 93 % 1012,9 hPa 0,0 l/m N 0,00 h 0 W/m 0,3 km/h (0 Bft)
05.01.2011 21:00 -5,2 C 94 % 1012,4 hPa 0,0 l/m N 0,00 h 0 W/m 0,3 km/h (0 Bft)
05.01.2011 22:00 -5,3 C 93 % 1012,1 hPa 0,0 l/m N 0,00 h 0 W/m 0,0 km/h (0 Bft)
05.01.2011 23:00 -6,1 C 92 % 1011,8 hPa 0,0 l/m N 0,00 h 0 W/m 0,0 km/h (0 Bft)
06.01.2011 00:00 -6,6 C 92 % 1011,2 hPa 0,0 l/m N 0,00 h 0 W/m 0,0 km/h (0 Bft)
06.01.2011 01:00 -7,1 C 92 % 1010,6 hPa 0,0 l/m N 0,00 h 0 W/m 0,0 km/h (0 Bft)
06.01.2011 02:00 -7,6 C 92 % 1010,0 hPa 0,0 l/m N 0,00 h 0 W/m 0,0 km/h (0 Bft)
06.01.2011 03:00 -7,6 C 93 % 1009,5 hPa 0,0 l/m N 0,00 h 0 W/m 0,0 km/h (0 Bft)
06.01.2011 04:00 -6,6 C 95 % 1009,4 hPa 0,0 l/m N 0,00 h 0 W/m 0,8 km/h (0 Bft)
06.01.2011 05:00 -5,3 C 95 % 1009,1 hPa 0,0 l/m S 0,00 h 0 W/m 4,1 km/h (1 Bft)
06.01.2011 06:00 -2,4 C 92 % 1008,7 hPa 0,0 l/m SW 0,00 h 0 W/m 12,2 km/h (2 Bft)
06.01.2011 07:00 -0,2 C 93 % 1008,9 hPa 0,8 l/m SW 0,00 h 0 W/m 14,6 km/h (3 Bft)
06.01.2011 08:00 -0,1 C 93 % 1009,2 hPa 0,2 l/m S-SW 0,00 h 11 W/m 14,0 km/h (3 Bft)
06.01.2011 09:00 -0,2 C 94 % 1009,3 hPa 0,0 l/m S 0,00 h 33 W/m 5,5 km/h (1 Bft)
06.01.2011 10:00 0,5 C 93 % 1009,1 hPa 0,0 l/m S-SW 0,08 h 94 W/m 9,8 km/h (2 Bft)
06.01.2011 11:00 2,6 C 90 % 1008,9 hPa 0,0 l/m SW 0,33 h 169 W/m 10,9 km/h (2 Bft)
06.01.2011 12:00 3,2 C 89 % 1008,4 hPa 0,0 l/m SW 0,00 h 142 W/m 16,2 km/h (3 Bft)
06.01.2011 13:00 4,8 C 89 % 1008,1 hPa 0,0 l/m SW 0,00 h 103 W/m 23,9 km/h (4 Bft)
06.01.2011 14:00 3,4 C 91 % 1008,0 hPa 0,0 l/m SW 0,00 h 58 W/m 14,2 km/h (3 Bft)
06.01.2011 15:00 2,7 C 92 % 1008,1 hPa 0,0 l/m SW 0,00 h 34 W/m 13,4 km/h (3 Bft)
06.01.2011 16:00 4,3 C 92 % 1008,2 hPa 0,0 l/m W 0,00 h 9 W/m 25,6 km/h (4 Bft)
06.01.2011 17:00 5,8 C 88 % 1007,9 hPa 0,2 l/m S-SW 0,00 h 0 W/m 21,3 km/h (4 Bft)
06.01.2011 18:00 3,9 C 92 % 1008,2 hPa 0,6 l/m SW 0,00 h 0 W/m 17,6 km/h (3 Bft)
06.01.2011 19:00 4,0 C 94 % 1008,8 hPa 0,0 l/m SW 0,00 h 0 W/m 19,3 km/h (3 Bft)
06.01.2011 20:00 3,2 C 95 % 1009,4 hPa 0,0 l/m SW 0,00 h 0 W/m 17,2 km/h (3 Bft)
06.01.2011 21:00 3,4 C 96 % 1009,7 hPa 0,0 l/m W-SW 0,00 h 0 W/m 15,6 km/h (3 Bft)
06.01.2011 22:00 3,5 C 95 % 1009,9 hPa 0,0 l/m S-SW 0,00 h 0 W/m 12,9 km/h (3 Bft)
06.01.2011 23:00 3,2 C 97 % 1010,3 hPa 0,2 l/m SW 0,00 h 0 W/m 14,2 km/h (3 Bft)
07.01.2011 00:00 4,1 C 95 % 1010,7 hPa 0,0 l/m SW 0,00 h 0 W/m 15,3 km/h (3 Bft)
07.01.2011 01:00 3,6 C 96 % 1010,9 hPa 0,0 l/m SW 0,00 h 0 W/m 12,4 km/h (3 Bft)
07.01.2011 02:00 3,9 C 97 % 1011,2 hPa 1,0 l/m SW 0,00 h 0 W/m 11,3 km/h (2 Bft)
07.01.2011 03:00 3,6 C 97 % 1011,3 hPa 0,0 l/m SW 0,00 h 0 W/m 9,3 km/h (2 Bft)
07.01.2011 04:00 3,8 C 98 % 1011,6 hPa 0,0 l/m SW 0,00 h 0 W/m 8,0 km/h (2 Bft)
07.01.2011 05:00 3,9 C 98 % 1011,9 hPa 0,2 l/m SW 0,00 h 0 W/m 9,8 km/h (2 Bft)
07.01.2011 06:00 4,0 C 98 % 1012,2 hPa 0,0 l/m SW 0,00 h 0 W/m 10,6 km/h (2 Bft)
07.01.2011 07:00 4,4 C 99 % 1012,6 hPa 0,0 l/m W-SW 0,00 h 0 W/m 12,9 km/h (3 Bft)
07.01.2011 08:00 4,4 C 98 % 1013,0 hPa 0,2 l/m S-SW 0,00 h 6 W/m 9,9 km/h (2 Bft)
07.01.2011 09:00 4,1 C 98 % 1012,6 hPa 0,0 l/m S-SO 0,00 h 19 W/m 3,1 km/h (1 Bft)
07.01.2011 10:00 4,0 C 98 % 1012,3 hPa 0,0 l/m N 0,00 h 47 W/m 0,0 km/h (0 Bft)
07.01.2011 11:00 4,9 C 99 % 1012,2 hPa 0,0 l/m N 0,00 h 96 W/m 1,2 km/h (1 Bft)
07.01.2011 12:00 5,6 C 98 % 1011,9 hPa 0,0 l/m N 0,00 h 79 W/m 2,1 km/h (1 Bft)
07.01.2011 13:00 5,2 C 98 % 1011,4 hPa 0,0 l/m SW 0,00 h 89 W/m 5,6 km/h (1 Bft)
07.01.2011 14:00 5,8 C 97 % 1011,3 hPa 0,0 l/m SO 0,00 h 72 W/m 5,1 km/h (1 Bft)
07.01.2011 15:00 5,9 C 95 % 1011,2 hPa 0,0 l/m SW 0,00 h 50 W/m 4,4 km/h (1 Bft)
07.01.2011 16:00 5,6 C 94 % 1011,5 hPa 0,0 l/m N 0,00 h 12 W/m 3,3 km/h (1 Bft)
07.01.2011 17:00 5,0 C 94 % 1011,7 hPa 0,0 l/m N 0,00 h 0 W/m 1,9 km/h (1 Bft)
07.01.2011 18:00 4,3 C 95 % 1012,0 hPa 0,0 l/m W-SW 0,00 h 0 W/m 3,6 km/h (1 Bft)
07.01.2011 19:00 3,7 C 96 % 1012,4 hPa 0,0 l/m W-SW 0,00 h 0 W/m 2,5 km/h (1 Bft)
07.01.2011 20:00 3,6 C 97 % 1012,4 hPa 0,0 l/m N 0,00 h 0 W/m 0,4 km/h (0 Bft)
07.01.2011 21:00 3,4 C 97 % 1012,3 hPa 0,0 l/m N 0,00 h 0 W/m 1,1 km/h (0 Bft)
07.01.2011 22:00 3,2 C 97 % 1012,1 hPa 0,0 l/m N 0,00 h 0 W/m 0,0 km/h (0 Bft)
07.01.2011 23:00 2,9 C 97 % 1012,1 hPa 0,0 l/m W-SW 0,00 h 0 W/m 0,8 km/h (0 Bft)
08.01.2011 00:00 2,9 C 97 % 1012,2 hPa 0,0 l/m N 0,00 h 0 W/m 0,3 km/h (0 Bft)
08.01.2011 01:00 2,8 C 98 % 1012,3 hPa 0,0 l/m N 0,00 h 0 W/m 0,4 km/h (0 Bft)
08.01.2011 02:00 2,7 C 98 % 1012,8 hPa 0,0 l/m N 0,00 h 0 W/m 0,8 km/h (0 Bft)
08.01.2011 03:00 2,6 C 98 % 1012,6 hPa 0,0 l/m N 0,00 h 0 W/m 0,0 km/h (0 Bft)
08.01.2011 04:00 2,5 C 98 % 1012,6 hPa 0,0 l/m N 0,00 h 0 W/m 0,9 km/h (0 Bft)
08.01.2011 05:00 2,4 C 98 % 1012,5 hPa 0,0 l/m N 0,00 h 0 W/m 0,9 km/h (0 Bft)
08.01.2011 06:00 2,4 C 98 % 1013,2 hPa 0,2 l/m W-SW 0,00 h 0 W/m 1,5 km/h (1 Bft)
08.01.2011 07:00 2,9 C 99 % 1013,9 hPa 0,6 l/m W-SW 0,00 h 0 W/m 3,5 km/h (1 Bft)
08.01.2011 08:00 3,1 C 99 % 1014,5 hPa 0,8 l/m S-SW 0,00 h 9 W/m 4,1 km/h (1 Bft)
08.01.2011 09:00 4,0 C 99 % 1014,8 hPa 0,2 l/m S-SW 0,00 h 37 W/m 5,9 km/h (2 Bft)
08.01.2011 10:00 5,3 C 100 % 1014,4 hPa 0,0 l/m S-SW 0,08 h 100 W/m 7,2 km/h (2 Bft)
08.01.2011 11:00 7,5 C 100 % 1013,9 hPa 0,0 l/m SW 0,33 h 188 W/m 13,6 km/h (3 Bft)
08.01.2011 12:00 9,0 C 96 % 1013,3 hPa 0,0 l/m SW 1,00 h 286 W/m 11,3 km/h (2 Bft)
08.01.2011 13:00 7,6 C 96 % 1012,9 hPa 0,0 l/m S-SW 0,50 h 183 W/m 7,4 km/h (2 Bft)
08.01.2011 14:00 8,6 C 94 % 1012,4 hPa 0,0 l/m SW 1,00 h 217 W/m 9,8 km/h (2 Bft)
08.01.2011 15:00 8,1 C 94 % 1012,5 hPa 0,0 l/m SW 0,00 h 54 W/m 7,6 km/h (2 Bft)
08.01.2011 16:00 7,3 C 95 % 1012,9 hPa 0,0 l/m SW 0,00 h 18 W/m 6,4 km/h (2 Bft)
08.01.2011 17:00 6,4 C 94 % 1013,0 hPa 0,0 l/m S-SW 0,00 h 0 W/m 6,8 km/h (2 Bft)
08.01.2011 18:00 5,7 C 96 % 1013,1 hPa 0,0 l/m S-SW 0,00 h 0 W/m 4,9 km/h (1 Bft)
08.01.2011 19:00 5,3 C 96 % 1012,8 hPa 0,0 l/m N 0,00 h 0 W/m 1,5 km/h (1 Bft)
08.01.2011 20:00 4,2 C 95 % 1012,6 hPa 0,0 l/m N 0,00 h 0 W/m 0,9 km/h (0 Bft)
08.01.2011 21:00 3,2 C 95 % 1012,5 hPa 0,0 l/m S-SW 0,00 h 0 W/m 2,1 km/h (1 Bft)
08.01.2011 22:00 2,8 C 97 % 1012,3 hPa 0,0 l/m N 0,00 h 0 W/m 1,3 km/h (1 Bft)
08.01.2011 23:00 2,4 C 97 % 1012,0 hPa 0,0 l/m N 0,00 h 0 W/m 0,8 km/h (0 Bft)
09.01.2011 00:00 2,3 C 97 % 1011,6 hPa 0,0 l/m N 0,00 h 0 W/m 0,3 km/h (0 Bft)
09.01.2011 01:00 1,9 C 97 % 1011,6 hPa 0,0 l/m W-NW 0,00 h 0 W/m 2,8 km/h (1 Bft)
09.01.2011 02:00 1,5 C 97 % 1011,6 hPa 0,0 l/m W-NW 0,00 h 0 W/m 1,6 km/h (1 Bft)
09.01.2011 03:00 0,9 C 97 % 1011,7 hPa 0,0 l/m N 0,00 h 0 W/m 1,1 km/h (0 Bft)
09.01.2011 04:00 0,2 C 97 % 1011,6 hPa 0,0 l/m N 0,00 h 0 W/m 0,0 km/h (0 Bft)
09.01.2011 05:00 0,0 C 97 % 1011,4 hPa 0,0 l/m N 0,00 h 0 W/m 1,3 km/h (1 Bft)
09.01.2011 06:00 0,0 C 98 % 1011,5 hPa 0,0 l/m N 0,00 h 0 W/m 0,1 km/h (0 Bft)
09.01.2011 07:00 0,3 C 98 % 1011,9 hPa 0,0 l/m SW 0,00 h 0 W/m 3,7 km/h (1 Bft)
09.01.2011 08:00 1,1 C 98 % 1012,1 hPa 0,0 l/m N 0,00 h 17 W/m 1,7 km/h (1 Bft)
09.01.2011 09:00 1,1 C 98 % 1012,5 hPa 0,0 l/m N 0,00 h 42 W/m 2,0 km/h (1 Bft)
09.01.2011 10:00 2,3 C 99 % 1013,1 hPa 0,2 l/m N 0,00 h 83 W/m 0,7 km/h (0 Bft)
09.01.2011 11:00 4,6 C 95 % 1013,2 hPa 0,0 l/m S 0,25 h 157 W/m 4,8 km/h (1 Bft)
09.01.2011 12:00 7,4 C 87 % 1012,9 hPa 0,0 l/m SW 0,33 h 156 W/m 8,3 km/h (2 Bft)
09.01.2011 13:00 8,1 C 83 % 1012,7 hPa 0,0 l/m S-SW 0,00 h 102 W/m 7,5 km/h (2 Bft)
09.01.2011 14:00 8,5 C 82 % 1012,8 hPa 0,0 l/m SW 0,00 h 44 W/m 9,8 km/h (2 Bft)
09.01.2011 15:00 8,3 C 85 % 1013,2 hPa 0,0 l/m SW 0,00 h 28 W/m 12,6 km/h (3 Bft)
09.01.2011 16:00 7,7 C 87 % 1013,6 hPa 0,0 l/m W-SW 0,00 h 8 W/m 10,3 km/h (2 Bft)
09.01.2011 17:00 7,1 C 89 % 1014,0 hPa 0,0 l/m S-SW 0,00 h 0 W/m 9,8 km/h (2 Bft)
09.01.2011 18:00 6,0 C 91 % 1014,5 hPa 0,0 l/m SW 0,00 h 0 W/m 8,2 km/h (2 Bft)
09.01.2011 19:00 5,5 C 94 % 1015,0 hPa 0,0 l/m SW 0,00 h 0 W/m 4,3 km/h (1 Bft)
09.01.2011 20:00 5,2 C 96 % 1015,5 hPa 0,0 l/m SW 0,00 h 0 W/m 7,0 km/h (2 Bft)
09.01.2011 21:00 5,3 C 96 % 1016,1 hPa 0,6 l/m SW 0,00 h 0 W/m 5,3 km/h (1 Bft)
09.01.2011 22:00 5,3 C 97 % 1016,7 hPa 1,6 l/m W-NW 0,00 h 0 W/m 4,9 km/h (1 Bft)
09.01.2011 23:00 5,2 C 97 % 1017,1 hPa 1,0 l/m N 0,00 h 0 W/m 0,5 km/h (0 Bft)
Min-Datum _ 03.01.11 05.01.11 06.01.11 - - - - 03.01.11
_ Min-Zeit 08:45 13:50 17:30 - - - - 00:00
Minimum _ -10,4 C 68 % 1007,7 hPa - - - - 0,0 km/h (0 Bft)
Max-Datum _ 08.01.11 08.01.11 03.01.11 09.01.11 - 03.01.11 08.01.11 06.01.11
_ Max-Zeit 12:15 10:30 10:40 22:05 - 11:40 11:55 16:35
Maximum _ 9,1 C 100 % 1025,7 hPa 1,6 l/m - 0,08 h 394 W/m 35,4 km/h
W-SW (5 Bft)
Durchschnitt _ -0,8 C 93 % 1015,3 hPa #8,6 l/m SW #10:30 h 90 W/m 4,3 km/h (1 Bft)